sensor_id;sensor_type;location;lat;lon;timestamp;temperature;humidity
13880;DHT22;7010;48.200;16.332;2022-10-16T00:01:45;12.70;99.90
13880;DHT22;7010;48.200;16.332;2022-10-16T00:04:14;12.70;99.90
13880;DHT22;7010;48.200;16.332;2022-10-16T00:06:42;12.70;99.90
13880;DHT22;7010;48.200;16.332;2022-10-16T00:09:10;12.70;99.90
13880;DHT22;7010;48.200;16.332;2022-10-16T00:11:39;12.70;99.90
13880;DHT22;7010;48.200;16.332;2022-10-16T00:14:10;12.80;99.90
13880;DHT22;7010;48.200;16.332;2022-10-16T00:16:39;12.80;99.90
13880;DHT22;7010;48.200;16.332;2022-10-16T00:19:09;12.80;99.90
13880;DHT22;7010;48.200;16.332;2022-10-16T00:21:38;12.80;99.90
13880;DHT22;7010;48.200;16.332;2022-10-16T00:24:07;12.80;99.90
13880;DHT22;7010;48.200;16.332;2022-10-16T00:26:37;12.80;99.90
13880;DHT22;7010;48.200;16.332;2022-10-16T00:29:06;12.80;99.90
13880;DHT22;7010;48.200;16.332;2022-10-16T00:31:35;12.80;99.90
13880;DHT22;7010;48.200;16.332;2022-10-16T00:34:03;12.90;99.90
13880;DHT22;7010;48.200;16.332;2022-10-16T00:36:33;12.80;99.90
13880;DHT22;7010;48.200;16.332;2022-10-16T00:39:01;12.80;99.90
13880;DHT22;7010;48.200;16.332;2022-10-16T00:41:30;12.90;99.90
13880;DHT22;7010;48.200;16.332;2022-10-16T00:44:00;12.90;99.90
13880;DHT22;7010;48.200;16.332;2022-10-16T00:46:35;12.90;99.90
13880;DHT22;7010;48.200;16.332;2022-10-16T00:49:06;12.90;99.90
13880;DHT22;7010;48.200;16.332;2022-10-16T00:51:38;12.90;99.90
13880;DHT22;7010;48.200;16.332;2022-10-16T00:54:10;12.90;99.90
13880;DHT22;7010;48.200;16.332;2022-10-16T00:56:40;12.80;99.90
13880;DHT22;7010;48.200;16.332;2022-10-16T00:59:14;12.80;99.90
13880;DHT22;7010;48.200;16.332;2022-10-16T01:01:43;12.80;99.90
13880;DHT22;7010;48.200;16.332;2022-10-16T01:04:11;12.80;99.90
13880;DHT22;7010;48.200;16.332;2022-10-16T01:06:46;12.80;99.90
13880;DHT22;7010;48.200;16.332;2022-10-16T01:09:20;12.80;99.90
13880;DHT22;7010;48.200;16.332;2022-10-16T01:11:57;12.80;99.90
13880;DHT22;7010;48.200;16.332;2022-10-16T01:14:36;12.80;99.90
13880;DHT22;7010;48.200;16.332;2022-10-16T01:17:12;12.80;99.90
13880;DHT22;7010;48.200;16.332;2022-10-16T01:19:51;12.70;99.90
13880;DHT22;7010;48.200;16.332;2022-10-16T01:22:33;12.70;99.90
13880;DHT22;7010;48.200;16.332;2022-10-16T01:25:11;12.70;99.90
13880;DHT22;7010;48.200;16.332;2022-10-16T01:27:42;12.70;99.90
13880;DHT22;7010;48.200;16.332;2022-10-16T01:30:16;12.60;99.90
13880;DHT22;7010;48.200;16.332;2022-10-16T01:32:48;12.60;99.90
13880;DHT22;7010;48.200;16.332;2022-10-16T01:35:21;12.60;99.90
13880;DHT22;7010;48.200;16.332;2022-10-16T01:37:55;12.60;99.90
13880;DHT22;7010;48.200;16.332;2022-10-16T01:40:27;12.60;99.90
13880;DHT22;7010;48.200;16.332;2022-10-16T01:43:01;12.50;99.90
13880;DHT22;7010;48.200;16.332;2022-10-16T01:45:31;12.50;99.90
13880;DHT22;7010;48.200;16.332;2022-10-16T01:48:01;12.50;99.90
13880;DHT22;7010;48.200;16.332;2022-10-16T01:50:33;12.50;99.90
13880;DHT22;7010;48.200;16.332;2022-10-16T01:53:04;12.50;99.90
13880;DHT22;7010;48.200;16.332;2022-10-16T01:55:36;12.50;99.90
13880;DHT22;7010;48.200;16.332;2022-10-16T01:58:08;12.50;99.90
13880;DHT22;7010;48.200;16.332;2022-10-16T02:00:38;12.50;99.90
13880;DHT22;7010;48.200;16.332;2022-10-16T02:03:10;12.50;99.90
13880;DHT22;7010;48.200;16.332;2022-10-16T02:05:44;12.50;99.90
13880;DHT22;7010;48.200;16.332;2022-10-16T02:08:13;12.50;99.90
13880;DHT22;7010;48.200;16.332;2022-10-16T02:10:41;12.60;99.90
13880;DHT22;7010;48.200;16.332;2022-10-16T02:13:14;12.60;99.90
13880;DHT22;7010;48.200;16.332;2022-10-16T02:15:43;12.60;99.90
13880;DHT22;7010;48.200;16.332;2022-10-16T02:18:12;12.50;99.90
13880;DHT22;7010;48.200;16.332;2022-10-16T02:20:48;12.60;99.90
13880;DHT22;7010;48.200;16.332;2022-10-16T02:23:27;12.60;99.90
13880;DHT22;7010;48.200;16.332;2022-10-16T02:25:58;12.60;99.90
13880;DHT22;7010;48.200;16.332;2022-10-16T02:28:32;12.60;99.90
13880;DHT22;7010;48.200;16.332;2022-10-16T02:31:04;12.60;99.90
13880;DHT22;7010;48.200;16.332;2022-10-16T02:33:37;12.50;99.90
13880;DHT22;7010;48.200;16.332;2022-10-16T02:36:07;12.50;99.90
13880;DHT22;7010;48.200;16.332;2022-10-16T02:38:36;12.50;99.90
13880;DHT22;7010;48.200;16.332;2022-10-16T02:41:04;12.50;99.90
13880;DHT22;7010;48.200;16.332;2022-10-16T02:43:34;12.50;99.90
13880;DHT22;7010;48.200;16.332;2022-10-16T02:46:02;12.50;99.90
13880;DHT22;7010;48.200;16.332;2022-10-16T02:48:30;12.50;99.90
13880;DHT22;7010;48.200;16.332;2022-10-16T02:50:59;12.40;99.90
13880;DHT22;7010;48.200;16.332;2022-10-16T02:53:27;12.40;99.90
13880;DHT22;7010;48.200;16.332;2022-10-16T02:55:55;12.40;99.90
13880;DHT22;7010;48.200;16.332;2022-10-16T02:58:24;12.40;99.90
13880;DHT22;7010;48.200;16.332;2022-10-16T03:00:55;12.40;99.90
13880;DHT22;7010;48.200;16.332;2022-10-16T03:03:23;12.40;99.90
13880;DHT22;7010;48.200;16.332;2022-10-16T03:05:52;12.40;99.90
13880;DHT22;7010;48.200;16.332;2022-10-16T03:08:20;12.40;99.90
13880;DHT22;7010;48.200;16.332;2022-10-16T03:10:50;12.30;99.90
13880;DHT22;7010;48.200;16.332;2022-10-16T03:13:19;12.30;99.90
13880;DHT22;7010;48.200;16.332;2022-10-16T03:15:48;12.40;99.90
13880;DHT22;7010;48.200;16.332;2022-10-16T03:18:18;12.30;99.90
13880;DHT22;7010;48.200;16.332;2022-10-16T03:20:46;12.30;99.90
13880;DHT22;7010;48.200;16.332;2022-10-16T03:23:14;12.30;99.90
13880;DHT22;7010;48.200;16.332;2022-10-16T03:25:43;12.30;99.90
13880;DHT22;7010;48.200;16.332;2022-10-16T03:28:14;12.30;99.90
13880;DHT22;7010;48.200;16.332;2022-10-16T03:30:43;12.30;99.90
13880;DHT22;7010;48.200;16.332;2022-10-16T03:33:11;12.30;99.90
13880;DHT22;7010;48.200;16.332;2022-10-16T03:35:41;12.20;99.90
13880;DHT22;7010;48.200;16.332;2022-10-16T03:38:09;12.20;99.90
13880;DHT22;7010;48.200;16.332;2022-10-16T03:40:37;12.20;99.90
13880;DHT22;7010;48.200;16.332;2022-10-16T03:43:06;12.10;99.90
13880;DHT22;7010;48.200;16.332;2022-10-16T03:45:34;12.10;99.90
13880;DHT22;7010;48.200;16.332;2022-10-16T03:48:02;12.00;99.90
13880;DHT22;7010;48.200;16.332;2022-10-16T03:50:30;12.00;99.90
13880;DHT22;7010;48.200;16.332;2022-10-16T03:53:00;12.00;99.90
13880;DHT22;7010;48.200;16.332;2022-10-16T03:55:28;11.90;99.90
13880;DHT22;7010;48.200;16.332;2022-10-16T03:57:57;11.90;99.90
13880;DHT22;7010;48.200;16.332;2022-10-16T04:00:25;11.90;99.90
13880;DHT22;7010;48.200;16.332;2022-10-16T04:02:53;12.00;99.90
13880;DHT22;7010;48.200;16.332;2022-10-16T04:05:21;12.00;99.90
13880;DHT22;7010;48.200;16.332;2022-10-16T04:07:49;12.00;99.90
13880;DHT22;7010;48.200;16.332;2022-10-16T04:10:19;12.00;99.90
13880;DHT22;7010;48.200;16.332;2022-10-16T04:12:47;12.00;99.90
13880;DHT22;7010;48.200;16.332;2022-10-16T04:15:15;11.90;99.90
13880;DHT22;7010;48.200;16.332;2022-10-16T04:17:44;12.00;99.90
13880;DHT22;7010;48.200;16.332;2022-10-16T04:20:12;11.90;99.90
13880;DHT22;7010;48.200;16.332;2022-10-16T04:22:40;11.90;99.90
13880;DHT22;7010;48.200;16.332;2022-10-16T04:25:09;11.80;99.90
13880;DHT22;7010;48.200;16.332;2022-10-16T04:27:39;11.80;99.90
13880;DHT22;7010;48.200;16.332;2022-10-16T04:30:11;11.80;99.90
13880;DHT22;7010;48.200;16.332;2022-10-16T04:32:40;11.80;99.90
13880;DHT22;7010;48.200;16.332;2022-10-16T04:35:09;11.80;99.90
13880;DHT22;7010;48.200;16.332;2022-10-16T04:37:37;11.80;99.90
13880;DHT22;7010;48.200;16.332;2022-10-16T04:40:06;11.80;99.90
13880;DHT22;7010;48.200;16.332;2022-10-16T04:42:34;11.70;99.90
13880;DHT22;7010;48.200;16.332;2022-10-16T04:45:05;11.70;99.90
13880;DHT22;7010;48.200;16.332;2022-10-16T04:47:39;11.70;99.90
13880;DHT22;7010;48.200;16.332;2022-10-16T04:50:08;11.70;99.90
13880;DHT22;7010;48.200;16.332;2022-10-16T04:52:36;11.70;99.90
13880;DHT22;7010;48.200;16.332;2022-10-16T04:55:05;11.70;99.90
13880;DHT22;7010;48.200;16.332;2022-10-16T04:57:33;11.70;99.90
13880;DHT22;7010;48.200;16.332;2022-10-16T05:00:04;11.70;99.90
13880;DHT22;7010;48.200;16.332;2022-10-16T05:02:32;11.70;99.90
13880;DHT22;7010;48.200;16.332;2022-10-16T05:05:01;11.70;99.90
13880;DHT22;7010;48.200;16.332;2022-10-16T05:07:29;11.70;99.90
13880;DHT22;7010;48.200;16.332;2022-10-16T05:09:57;11.70;99.90
13880;DHT22;7010;48.200;16.332;2022-10-16T05:12:25;11.70;99.90
13880;DHT22;7010;48.200;16.332;2022-10-16T05:14:53;11.70;99.90
13880;DHT22;7010;48.200;16.332;2022-10-16T05:17:27;11.70;99.90
13880;DHT22;7010;48.200;16.332;2022-10-16T05:19:55;11.70;99.90
13880;DHT22;7010;48.200;16.332;2022-10-16T05:22:23;11.70;99.90
13880;DHT22;7010;48.200;16.332;2022-10-16T05:24:52;11.70;99.90
13880;DHT22;7010;48.200;16.332;2022-10-16T05:27:20;11.70;99.90
13880;DHT22;7010;48.200;16.332;2022-10-16T05:29:49;11.70;99.90
13880;DHT22;7010;48.200;16.332;2022-10-16T05:32:18;11.70;99.90
13880;DHT22;7010;48.200;16.332;2022-10-16T05:34:48;11.70;99.90
13880;DHT22;7010;48.200;16.332;2022-10-16T05:37:16;11.70;99.90
13880;DHT22;7010;48.200;16.332;2022-10-16T05:39:44;11.80;99.90
13880;DHT22;7010;48.200;16.332;2022-10-16T05:42:12;11.70;99.90
13880;DHT22;7010;48.200;16.332;2022-10-16T05:44:41;11.80;99.90
13880;DHT22;7010;48.200;16.332;2022-10-16T05:47:09;11.80;99.90
13880;DHT22;7010;48.200;16.332;2022-10-16T05:49:37;11.80;99.90
13880;DHT22;7010;48.200;16.332;2022-10-16T05:52:08;11.80;99.90
13880;DHT22;7010;48.200;16.332;2022-10-16T05:54:37;11.80;99.90
13880;DHT22;7010;48.200;16.332;2022-10-16T05:57:05;11.90;99.90
13880;DHT22;7010;48.200;16.332;2022-10-16T05:59:33;11.90;99.90
13880;DHT22;7010;48.200;16.332;2022-10-16T06:02:02;11.90;99.90
13880;DHT22;7010;48.200;16.332;2022-10-16T06:04:30;11.80;99.90
13880;DHT22;7010;48.200;16.332;2022-10-16T06:06:58;11.80;99.90
13880;DHT22;7010;48.200;16.332;2022-10-16T06:09:29;11.90;99.90
13880;DHT22;7010;48.200;16.332;2022-10-16T06:11:58;11.90;99.90
13880;DHT22;7010;48.200;16.332;2022-10-16T06:14:26;11.90;99.90
13880;DHT22;7010;48.200;16.332;2022-10-16T06:16:54;11.80;99.90
13880;DHT22;7010;48.200;16.332;2022-10-16T06:19:23;11.90;99.90
13880;DHT22;7010;48.200;16.332;2022-10-16T06:21:51;11.80;99.90
13880;DHT22;7010;48.200;16.332;2022-10-16T06:24:19;11.80;99.90
13880;DHT22;7010;48.200;16.332;2022-10-16T06:26:49;11.80;99.90
13880;DHT22;7010;48.200;16.332;2022-10-16T06:29:17;11.90;99.90
13880;DHT22;7010;48.200;16.332;2022-10-16T06:31:45;11.90;99.90
13880;DHT22;7010;48.200;16.332;2022-10-16T06:34:13;11.90;99.90
13880;DHT22;7010;48.200;16.332;2022-10-16T06:36:42;11.90;99.90
13880;DHT22;7010;48.200;16.332;2022-10-16T06:39:10;11.90;99.90
13880;DHT22;7010;48.200;16.332;2022-10-16T06:41:38;11.90;99.90
13880;DHT22;7010;48.200;16.332;2022-10-16T06:44:08;11.90;99.90
13880;DHT22;7010;48.200;16.332;2022-10-16T06:46:36;12.00;99.90
13880;DHT22;7010;48.200;16.332;2022-10-16T06:49:04;12.00;99.90
13880;DHT22;7010;48.200;16.332;2022-10-16T06:51:33;12.10;99.90
13880;DHT22;7010;48.200;16.332;2022-10-16T06:54:08;12.10;99.90
13880;DHT22;7010;48.200;16.332;2022-10-16T06:56:36;12.10;99.90
13880;DHT22;7010;48.200;16.332;2022-10-16T06:59:05;12.20;99.90
13880;DHT22;7010;48.200;16.332;2022-10-16T07:01:34;12.10;99.90
13880;DHT22;7010;48.200;16.332;2022-10-16T07:04:03;12.10;99.90
13880;DHT22;7010;48.200;16.332;2022-10-16T07:06:33;12.10;99.90
13880;DHT22;7010;48.200;16.332;2022-10-16T07:09:03;12.00;99.90
13880;DHT22;7010;48.200;16.332;2022-10-16T07:11:33;12.00;99.90
13880;DHT22;7010;48.200;16.332;2022-10-16T07:14:01;12.00;99.90
13880;DHT22;7010;48.200;16.332;2022-10-16T07:16:32;12.00;99.90
13880;DHT22;7010;48.200;16.332;2022-10-16T07:19:02;12.00;99.90
13880;DHT22;7010;48.200;16.332;2022-10-16T07:21:32;12.00;99.90
13880;DHT22;7010;48.200;16.332;2022-10-16T07:24:04;12.00;99.90
13880;DHT22;7010;48.200;16.332;2022-10-16T07:26:35;12.10;99.90
13880;DHT22;7010;48.200;16.332;2022-10-16T07:29:07;12.10;99.90
13880;DHT22;7010;48.200;16.332;2022-10-16T07:31:40;12.20;99.90
13880;DHT22;7010;48.200;16.332;2022-10-16T07:34:11;12.20;99.90
13880;DHT22;7010;48.200;16.332;2022-10-16T07:36:40;12.20;99.90
13880;DHT22;7010;48.200;16.332;2022-10-16T07:39:08;12.20;99.90
13880;DHT22;7010;48.200;16.332;2022-10-16T07:41:36;12.30;99.90
13880;DHT22;7010;48.200;16.332;2022-10-16T07:44:05;12.20;99.90
13880;DHT22;7010;48.200;16.332;2022-10-16T07:46:33;12.20;99.90
13880;DHT22;7010;48.200;16.332;2022-10-16T07:49:02;12.10;99.90
13880;DHT22;7010;48.200;16.332;2022-10-16T07:51:33;12.10;99.90
13880;DHT22;7010;48.200;16.332;2022-10-16T07:54:01;12.00;99.90
13880;DHT22;7010;48.200;16.332;2022-10-16T07:56:31;12.00;99.90
13880;DHT22;7010;48.200;16.332;2022-10-16T07:59:05;12.00;99.90
13880;DHT22;7010;48.200;16.332;2022-10-16T08:01:34;12.00;99.90
13880;DHT22;7010;48.200;16.332;2022-10-16T08:04:03;12.10;99.90
13880;DHT22;7010;48.200;16.332;2022-10-16T08:06:37;12.10;99.90
13880;DHT22;7010;48.200;16.332;2022-10-16T08:09:06;12.10;99.90
13880;DHT22;7010;48.200;16.332;2022-10-16T08:11:34;12.20;99.90
13880;DHT22;7010;48.200;16.332;2022-10-16T08:14:03;12.20;99.90
13880;DHT22;7010;48.200;16.332;2022-10-16T08:16:31;12.30;99.90
13880;DHT22;7010;48.200;16.332;2022-10-16T08:18:59;12.30;99.90
13880;DHT22;7010;48.200;16.332;2022-10-16T08:21:27;12.40;99.90
13880;DHT22;7010;48.200;16.332;2022-10-16T08:23:57;12.40;99.90
13880;DHT22;7010;48.200;16.332;2022-10-16T08:26:26;12.40;99.90
13880;DHT22;7010;48.200;16.332;2022-10-16T08:28:54;12.40;99.90
13880;DHT22;7010;48.200;16.332;2022-10-16T08:31:23;12.50;99.90
13880;DHT22;7010;48.200;16.332;2022-10-16T08:33:53;12.60;99.90
13880;DHT22;7010;48.200;16.332;2022-10-16T08:36:21;12.60;99.90
13880;DHT22;7010;48.200;16.332;2022-10-16T08:38:50;12.70;99.90
13880;DHT22;7010;48.200;16.332;2022-10-16T08:41:39;12.70;99.90
13880;DHT22;7010;48.200;16.332;2022-10-16T08:44:36;12.80;99.90
13880;DHT22;7010;48.200;16.332;2022-10-16T08:47:15;12.90;99.90
13880;DHT22;7010;48.200;16.332;2022-10-16T08:49:56;12.90;99.90
13880;DHT22;7010;48.200;16.332;2022-10-16T08:52:29;12.90;99.90
13880;DHT22;7010;48.200;16.332;2022-10-16T08:54:58;13.00;99.90
13880;DHT22;7010;48.200;16.332;2022-10-16T08:57:27;13.10;99.90
13880;DHT22;7010;48.200;16.332;2022-10-16T09:00:00;13.10;99.90
13880;DHT22;7010;48.200;16.332;2022-10-16T09:02:32;13.10;99.90
13880;DHT22;7010;48.200;16.332;2022-10-16T09:05:22;13.10;99.90
13880;DHT22;7010;48.200;16.332;2022-10-16T09:08:01;13.20;99.90
13880;DHT22;7010;48.200;16.332;2022-10-16T09:10:44;13.20;99.90
13880;DHT22;7010;48.200;16.332;2022-10-16T09:13:20;13.10;99.90
13880;DHT22;7010;48.200;16.332;2022-10-16T09:15:56;13.20;99.90
13880;DHT22;7010;48.200;16.332;2022-10-16T09:18:30;13.30;99.90
13880;DHT22;7010;48.200;16.332;2022-10-16T09:21:07;13.30;99.90
13880;DHT22;7010;48.200;16.332;2022-10-16T09:23:37;13.30;99.90
13880;DHT22;7010;48.200;16.332;2022-10-16T09:26:10;13.30;99.90
13880;DHT22;7010;48.200;16.332;2022-10-16T09:28:41;13.40;99.90
13880;DHT22;7010;48.200;16.332;2022-10-16T09:31:15;13.40;99.90
13880;DHT22;7010;48.200;16.332;2022-10-16T09:33:47;13.50;99.90
13880;DHT22;7010;48.200;16.332;2022-10-16T09:36:16;13.60;99.90
13880;DHT22;7010;48.200;16.332;2022-10-16T09:38:44;13.60;99.90
13880;DHT22;7010;48.200;16.332;2022-10-16T09:41:18;13.70;99.90
13880;DHT22;7010;48.200;16.332;2022-10-16T09:43:52;13.60;99.90
13880;DHT22;7010;48.200;16.332;2022-10-16T09:46:26;13.60;99.90
13880;DHT22;7010;48.200;16.332;2022-10-16T09:48:56;13.60;99.90
13880;DHT22;7010;48.200;16.332;2022-10-16T09:51:27;13.60;99.90
13880;DHT22;7010;48.200;16.332;2022-10-16T09:53:58;13.60;99.90
13880;DHT22;7010;48.200;16.332;2022-10-16T09:56:28;13.70;99.90
13880;DHT22;7010;48.200;16.332;2022-10-16T09:59:00;13.70;99.90
13880;DHT22;7010;48.200;16.332;2022-10-16T10:01:32;13.70;99.90
13880;DHT22;7010;48.200;16.332;2022-10-16T10:04:05;13.80;99.90
13880;DHT22;7010;48.200;16.332;2022-10-16T10:06:35;13.80;99.90
13880;DHT22;7010;48.200;16.332;2022-10-16T10:09:16;13.90;99.90
13880;DHT22;7010;48.200;16.332;2022-10-16T10:11:51;14.00;99.90
13880;DHT22;7010;48.200;16.332;2022-10-16T10:14:26;14.10;99.90
13880;DHT22;7010;48.200;16.332;2022-10-16T10:17:14;14.20;99.90
13880;DHT22;7010;48.200;16.332;2022-10-16T10:19:50;14.30;99.90
13880;DHT22;7010;48.200;16.332;2022-10-16T10:22:23;14.30;99.90
13880;DHT22;7010;48.200;16.332;2022-10-16T10:24:57;14.40;99.90
13880;DHT22;7010;48.200;16.332;2022-10-16T10:27:33;14.50;99.90
13880;DHT22;7010;48.200;16.332;2022-10-16T10:30:09;14.50;99.90
13880;DHT22;7010;48.200;16.332;2022-10-16T10:32:49;14.60;99.90
13880;DHT22;7010;48.200;16.332;2022-10-16T10:35:24;14.60;99.90
13880;DHT22;7010;48.200;16.332;2022-10-16T10:38:05;14.60;99.90
13880;DHT22;7010;48.200;16.332;2022-10-16T10:40:45;14.50;99.90
13880;DHT22;7010;48.200;16.332;2022-10-16T10:43:33;14.50;99.90
13880;DHT22;7010;48.200;16.332;2022-10-16T10:46:16;14.50;99.90
13880;DHT22;7010;48.200;16.332;2022-10-16T10:49:06;14.50;99.90
13880;DHT22;7010;48.200;16.332;2022-10-16T10:51:43;14.50;99.90
13880;DHT22;7010;48.200;16.332;2022-10-16T10:54:19;14.60;99.90
13880;DHT22;7010;48.200;16.332;2022-10-16T10:56:56;14.60;99.90
13880;DHT22;7010;48.200;16.332;2022-10-16T10:59:43;14.70;99.90
13880;DHT22;7010;48.200;16.332;2022-10-16T11:02:19;14.80;99.90
13880;DHT22;7010;48.200;16.332;2022-10-16T11:05:02;15.00;99.90
13880;DHT22;7010;48.200;16.332;2022-10-16T11:07:37;15.10;99.90
13880;DHT22;7010;48.200;16.332;2022-10-16T11:10:13;15.10;99.90
13880;DHT22;7010;48.200;16.332;2022-10-16T11:12:44;15.20;99.90
13880;DHT22;7010;48.200;16.332;2022-10-16T11:15:16;15.20;99.90
13880;DHT22;7010;48.200;16.332;2022-10-16T11:17:52;15.20;99.90
13880;DHT22;7010;48.200;16.332;2022-10-16T11:20:24;15.30;99.90
13880;DHT22;7010;48.200;16.332;2022-10-16T11:22:56;15.40;99.90
13880;DHT22;7010;48.200;16.332;2022-10-16T11:25:27;15.60;99.90
13880;DHT22;7010;48.200;16.332;2022-10-16T11:28:00;15.90;99.90
13880;DHT22;7010;48.200;16.332;2022-10-16T11:30:31;16.00;99.90
13880;DHT22;7010;48.200;16.332;2022-10-16T11:33:10;16.10;99.90
13880;DHT22;7010;48.200;16.332;2022-10-16T11:35:48;16.40;99.90
13880;DHT22;7010;48.200;16.332;2022-10-16T11:38:23;16.90;99.90
13880;DHT22;7010;48.200;16.332;2022-10-16T11:40:56;17.30;99.90
13880;DHT22;7010;48.200;16.332;2022-10-16T11:43:29;17.80;99.90
13880;DHT22;7010;48.200;16.332;2022-10-16T11:46:04;18.10;99.90
13880;DHT22;7010;48.200;16.332;2022-10-16T11:48:43;18.40;99.90
13880;DHT22;7010;48.200;16.332;2022-10-16T11:51:19;18.50;99.90
13880;DHT22;7010;48.200;16.332;2022-10-16T11:53:55;18.40;99.90
13880;DHT22;7010;48.200;16.332;2022-10-16T11:56:25;18.60;99.90
13880;DHT22;7010;48.200;16.332;2022-10-16T11:58:58;18.70;99.90
13880;DHT22;7010;48.200;16.332;2022-10-16T12:01:31;18.60;99.90
13880;DHT22;7010;48.200;16.332;2022-10-16T12:04:19;18.40;99.90
13880;DHT22;7010;48.200;16.332;2022-10-16T12:06:52;18.40;99.90
13880;DHT22;7010;48.200;16.332;2022-10-16T12:09:25;18.70;99.90
13880;DHT22;7010;48.200;16.332;2022-10-16T12:11:54;19.10;99.90
13880;DHT22;7010;48.200;16.332;2022-10-16T12:14:37;19.30;99.90
13880;DHT22;7010;48.200;16.332;2022-10-16T12:17:33;19.60;99.90
13880;DHT22;7010;48.200;16.332;2022-10-16T12:20:20;19.80;99.90
13880;DHT22;7010;48.200;16.332;2022-10-16T12:22:51;19.90;99.90
13880;DHT22;7010;48.200;16.332;2022-10-16T12:25:23;19.90;99.90
13880;DHT22;7010;48.200;16.332;2022-10-16T12:27:58;20.00;99.90
13880;DHT22;7010;48.200;16.332;2022-10-16T12:30:28;20.30;99.90
13880;DHT22;7010;48.200;16.332;2022-10-16T12:33:03;20.70;99.90
13880;DHT22;7010;48.200;16.332;2022-10-16T12:35:35;21.10;99.90
13880;DHT22;7010;48.200;16.332;2022-10-16T12:38:19;21.20;99.90
13880;DHT22;7010;48.200;16.332;2022-10-16T12:40:56;21.40;99.90
13880;DHT22;7010;48.200;16.332;2022-10-16T12:43:34;21.50;99.90
13880;DHT22;7010;48.200;16.332;2022-10-16T12:46:19;21.50;99.90
13880;DHT22;7010;48.200;16.332;2022-10-16T12:48:48;21.70;99.90
13880;DHT22;7010;48.200;16.332;2022-10-16T12:51:36;22.20;99.90
13880;DHT22;7010;48.200;16.332;2022-10-16T12:54:12;22.30;99.90
13880;DHT22;7010;48.200;16.332;2022-10-16T12:56:50;22.30;99.90
13880;DHT22;7010;48.200;16.332;2022-10-16T12:59:29;22.20;99.90
13880;DHT22;7010;48.200;16.332;2022-10-16T13:02:21;21.90;99.90
13880;DHT22;7010;48.200;16.332;2022-10-16T13:05:24;22.10;99.90
13880;DHT22;7010;48.200;16.332;2022-10-16T13:08:04;22.30;99.90
13880;DHT22;7010;48.200;16.332;2022-10-16T13:10:40;22.50;99.90
13880;DHT22;7010;48.200;16.332;2022-10-16T13:13:30;22.40;99.90
13880;DHT22;7010;48.200;16.332;2022-10-16T13:16:15;22.50;99.90
13880;DHT22;7010;48.200;16.332;2022-10-16T13:18:52;22.60;99.90
13880;DHT22;7010;48.200;16.332;2022-10-16T13:21:33;22.50;99.90
13880;DHT22;7010;48.200;16.332;2022-10-16T13:24:14;22.40;99.90
13880;DHT22;7010;48.200;16.332;2022-10-16T13:26:52;22.50;99.90
13880;DHT22;7010;48.200;16.332;2022-10-16T13:29:22;22.70;99.90
13880;DHT22;7010;48.200;16.332;2022-10-16T13:31:50;22.60;99.90
13880;DHT22;7010;48.200;16.332;2022-10-16T13:34:21;22.70;99.90
13880;DHT22;7010;48.200;16.332;2022-10-16T13:36:51;22.90;99.90
13880;DHT22;7010;48.200;16.332;2022-10-16T13:39:26;23.00;99.90
13880;DHT22;7010;48.200;16.332;2022-10-16T13:42:02;23.10;99.90
13880;DHT22;7010;48.200;16.332;2022-10-16T13:44:39;23.00;99.90
13880;DHT22;7010;48.200;16.332;2022-10-16T13:47:16;22.80;99.90
13880;DHT22;7010;48.200;16.332;2022-10-16T13:49:45;22.80;99.90
13880;DHT22;7010;48.200;16.332;2022-10-16T13:52:18;22.60;99.90
13880;DHT22;7010;48.200;16.332;2022-10-16T13:54:48;22.30;99.90
13880;DHT22;7010;48.200;16.332;2022-10-16T13:57:17;22.20;99.90
13880;DHT22;7010;48.200;16.332;2022-10-16T13:59:54;22.10;99.90
13880;DHT22;7010;48.200;16.332;2022-10-16T14:02:26;22.10;99.90
13880;DHT22;7010;48.200;16.332;2022-10-16T14:04:56;22.00;99.90
13880;DHT22;7010;48.200;16.332;2022-10-16T14:07:26;22.00;99.90
13880;DHT22;7010;48.200;16.332;2022-10-16T14:09:59;22.00;99.90
13880;DHT22;7010;48.200;16.332;2022-10-16T14:12:28;22.10;99.90
13880;DHT22;7010;48.200;16.332;2022-10-16T14:14:58;22.00;99.90
13880;DHT22;7010;48.200;16.332;2022-10-16T14:17:29;22.00;99.90
13880;DHT22;7010;48.200;16.332;2022-10-16T14:20:00;22.00;99.90
13880;DHT22;7010;48.200;16.332;2022-10-16T14:22:34;21.90;99.90
13880;DHT22;7010;48.200;16.332;2022-10-16T14:25:20;21.90;99.90
13880;DHT22;7010;48.200;16.332;2022-10-16T14:27:57;22.00;99.90
13880;DHT22;7010;48.200;16.332;2022-10-16T14:30:28;22.00;99.90
13880;DHT22;7010;48.200;16.332;2022-10-16T14:32:58;21.70;99.90
13880;DHT22;7010;48.200;16.332;2022-10-16T14:35:30;21.60;99.90
13880;DHT22;7010;48.200;16.332;2022-10-16T14:38:00;21.40;99.90
13880;DHT22;7010;48.200;16.332;2022-10-16T14:40:31;21.30;99.90
13880;DHT22;7010;48.200;16.332;2022-10-16T14:43:01;21.20;99.90
13880;DHT22;7010;48.200;16.332;2022-10-16T14:45:32;21.10;99.90
13880;DHT22;7010;48.200;16.332;2022-10-16T14:48:04;21.00;99.90
13880;DHT22;7010;48.200;16.332;2022-10-16T14:50:34;20.80;99.90
13880;DHT22;7010;48.200;16.332;2022-10-16T14:53:08;20.80;99.90
13880;DHT22;7010;48.200;16.332;2022-10-16T14:55:41;20.60;99.90
13880;DHT22;7010;48.200;16.332;2022-10-16T14:58:13;20.60;99.90
13880;DHT22;7010;48.200;16.332;2022-10-16T15:00:44;20.50;99.90
13880;DHT22;7010;48.200;16.332;2022-10-16T15:03:13;20.40;99.90
13880;DHT22;7010;48.200;16.332;2022-10-16T15:05:41;20.30;99.90
13880;DHT22;7010;48.200;16.332;2022-10-16T15:08:10;20.20;99.90
13880;DHT22;7010;48.200;16.332;2022-10-16T15:10:44;20.10;99.90
13880;DHT22;7010;48.200;16.332;2022-10-16T15:13:12;20.10;99.90
13880;DHT22;7010;48.200;16.332;2022-10-16T15:15:43;20.00;99.90
13880;DHT22;7010;48.200;16.332;2022-10-16T15:18:12;19.90;99.90
13880;DHT22;7010;48.200;16.332;2022-10-16T15:20:49;19.90;99.90
13880;DHT22;7010;48.200;16.332;2022-10-16T15:23:20;19.80;99.90
13880;DHT22;7010;48.200;16.332;2022-10-16T15:25:52;19.70;99.90
13880;DHT22;7010;48.200;16.332;2022-10-16T15:28:22;19.70;99.90
13880;DHT22;7010;48.200;16.332;2022-10-16T15:30:54;19.60;99.90
13880;DHT22;7010;48.200;16.332;2022-10-16T15:33:25;19.50;99.90
13880;DHT22;7010;48.200;16.332;2022-10-16T15:36:02;19.50;99.90
13880;DHT22;7010;48.200;16.332;2022-10-16T15:38:30;19.40;99.90
13880;DHT22;7010;48.200;16.332;2022-10-16T15:41:00;19.30;99.90
13880;DHT22;7010;48.200;16.332;2022-10-16T15:43:28;19.20;99.90
13880;DHT22;7010;48.200;16.332;2022-10-16T15:46:00;19.10;99.90
13880;DHT22;7010;48.200;16.332;2022-10-16T15:48:30;19.10;99.90
13880;DHT22;7010;48.200;16.332;2022-10-16T15:50:59;19.00;99.90
13880;DHT22;7010;48.200;16.332;2022-10-16T15:53:27;18.90;99.90
13880;DHT22;7010;48.200;16.332;2022-10-16T15:55:55;18.90;99.90
13880;DHT22;7010;48.200;16.332;2022-10-16T15:58:25;18.80;99.90
13880;DHT22;7010;48.200;16.332;2022-10-16T16:00:56;18.80;99.90